sensor_id;sensor_type;location;lat;lon;timestamp;temperature;humidity
54006;DHT22;39919;38.160;-122.260;2023-08-06T00:08:31;29.80;52.80
54006;DHT22;39919;38.160;-122.260;2023-08-06T00:11:02;29.60;53.10
54006;DHT22;39919;38.160;-122.260;2023-08-06T00:13:31;29.60;53.40
54006;DHT22;39919;38.160;-122.260;2023-08-06T00:16:09;29.50;53.50
54006;DHT22;39919;38.160;-122.260;2023-08-06T00:18:41;29.40;53.60
54006;DHT22;39919;38.160;-122.260;2023-08-06T00:21:10;29.40;54.00
54006;DHT22;39919;38.160;-122.260;2023-08-06T00:23:41;29.30;54.20
54006;DHT22;39919;38.160;-122.260;2023-08-06T00:26:14;29.30;54.10
54006;DHT22;39919;38.160;-122.260;2023-08-06T00:28:43;29.20;54.10
54006;DHT22;39919;38.160;-122.260;2023-08-06T00:31:12;29.10;54.20
54006;DHT22;39919;38.160;-122.260;2023-08-06T00:33:41;29.10;54.60
54006;DHT22;39919;38.160;-122.260;2023-08-06T00:36:13;29.00;54.50
54006;DHT22;39919;38.160;-122.260;2023-08-06T00:38:42;29.00;54.60
54006;DHT22;39919;38.160;-122.260;2023-08-06T00:41:17;28.90;54.50
54006;DHT22;39919;38.160;-122.260;2023-08-06T00:43:46;28.80;54.20
54006;DHT22;39919;38.160;-122.260;2023-08-06T00:46:15;28.80;54.20
54006;DHT22;39919;38.160;-122.260;2023-08-06T00:48:45;28.70;54.10
54006;DHT22;39919;38.160;-122.260;2023-08-06T00:51:30;28.60;54.20
54006;DHT22;39919;38.160;-122.260;2023-08-06T00:54:00;28.50;54.30
54006;DHT22;39919;38.160;-122.260;2023-08-06T00:56:33;28.40;54.40
54006;DHT22;39919;38.160;-122.260;2023-08-06T00:59:04;28.30;54.50
54006;DHT22;39919;38.160;-122.260;2023-08-06T01:01:33;28.20;54.60
54006;DHT22;39919;38.160;-122.260;2023-08-06T01:04:05;28.10;54.60
54006;DHT22;39919;38.160;-122.260;2023-08-06T01:06:44;28.00;54.80
54006;DHT22;39919;38.160;-122.260;2023-08-06T01:09:27;28.00;55.20
54006;DHT22;39919;38.160;-122.260;2023-08-06T01:12:07;27.90;55.40
54006;DHT22;39919;38.160;-122.260;2023-08-06T01:14:45;27.80;55.80
54006;DHT22;39919;38.160;-122.260;2023-08-06T01:17:15;27.70;56.20
54006;DHT22;39919;38.160;-122.260;2023-08-06T01:19:46;27.60;56.40
54006;DHT22;39919;38.160;-122.260;2023-08-06T01:22:24;27.50;56.50
54006;DHT22;39919;38.160;-122.260;2023-08-06T01:24:53;27.40;56.80
54006;DHT22;39919;38.160;-122.260;2023-08-06T01:27:30;27.30;57.00
54006;DHT22;39919;38.160;-122.260;2023-08-06T01:30:05;27.20;57.30
54006;DHT22;39919;38.160;-122.260;2023-08-06T01:32:36;27.20;57.30
54006;DHT22;39919;38.160;-122.260;2023-08-06T01:35:08;27.10;57.40
54006;DHT22;39919;38.160;-122.260;2023-08-06T01:37:41;27.00;57.40
54006;DHT22;39919;38.160;-122.260;2023-08-06T01:40:11;27.00;68.20
54006;DHT22;39919;38.160;-122.260;2023-08-06T01:42:41;26.90;57.80
54006;DHT22;39919;38.160;-122.260;2023-08-06T01:45:10;26.90;58.00
54006;DHT22;39919;38.160;-122.260;2023-08-06T01:47:39;26.80;58.00
54006;DHT22;39919;38.160;-122.260;2023-08-06T01:50:09;26.80;58.10
54006;DHT22;39919;38.160;-122.260;2023-08-06T01:52:40;26.70;58.00
54006;DHT22;39919;38.160;-122.260;2023-08-06T01:55:12;26.60;58.20
54006;DHT22;39919;38.160;-122.260;2023-08-06T01:57:41;26.60;58.00
54006;DHT22;39919;38.160;-122.260;2023-08-06T02:00:11;26.50;57.90
54006;DHT22;39919;38.160;-122.260;2023-08-06T02:02:40;26.50;58.00
54006;DHT22;39919;38.160;-122.260;2023-08-06T02:05:10;26.40;58.00
54006;DHT22;39919;38.160;-122.260;2023-08-06T02:07:40;26.30;58.10
54006;DHT22;39919;38.160;-122.260;2023-08-06T02:10:10;26.30;58.00
54006;DHT22;39919;38.160;-122.260;2023-08-06T02:12:39;26.30;58.30
54006;DHT22;39919;38.160;-122.260;2023-08-06T02:15:08;26.40;78.90
54006;DHT22;39919;38.160;-122.260;2023-08-06T02:17:38;26.20;58.70
54006;DHT22;39919;38.160;-122.260;2023-08-06T02:20:07;26.20;58.80
54006;DHT22;39919;38.160;-122.260;2023-08-06T02:22:51;26.10;59.20
54006;DHT22;39919;38.160;-122.260;2023-08-06T02:25:22;26.00;59.20
54006;DHT22;39919;38.160;-122.260;2023-08-06T02:27:51;26.00;74.60
54006;DHT22;39919;38.160;-122.260;2023-08-06T02:32:49;25.80;59.40
54006;DHT22;39919;38.160;-122.260;2023-08-06T02:35:18;25.70;59.90
54006;DHT22;39919;38.160;-122.260;2023-08-06T02:37:47;25.60;60.10
54006;DHT22;39919;38.160;-122.260;2023-08-06T02:40:18;25.50;60.30
54006;DHT22;39919;38.160;-122.260;2023-08-06T02:42:47;25.40;60.60
54006;DHT22;39919;38.160;-122.260;2023-08-06T02:45:17;25.30;61.00
54006;DHT22;39919;38.160;-122.260;2023-08-06T02:47:46;25.30;61.30
54006;DHT22;39919;38.160;-122.260;2023-08-06T02:50:15;25.20;61.40
54006;DHT22;39919;38.160;-122.260;2023-08-06T02:52:47;25.10;61.50
54006;DHT22;39919;38.160;-122.260;2023-08-06T02:55:18;25.10;61.50
54006;DHT22;39919;38.160;-122.260;2023-08-06T02:57:47;25.00;61.60
54006;DHT22;39919;38.160;-122.260;2023-08-06T03:00:16;24.90;61.80
54006;DHT22;39919;38.160;-122.260;2023-08-06T03:02:45;24.80;62.10
54006;DHT22;39919;38.160;-122.260;2023-08-06T03:05:17;24.70;61.90
54006;DHT22;39919;38.160;-122.260;2023-08-06T03:12:49;24.40;61.90
54006;DHT22;39919;38.160;-122.260;2023-08-06T03:15:18;24.30;62.40
54006;DHT22;39919;38.160;-122.260;2023-08-06T03:17:47;24.20;62.60
54006;DHT22;39919;38.160;-122.260;2023-08-06T03:20:17;24.10;62.90
54006;DHT22;39919;38.160;-122.260;2023-08-06T03:22:46;24.00;63.10
54006;DHT22;39919;38.160;-122.260;2023-08-06T03:25:18;23.90;63.80
54006;DHT22;39919;38.160;-122.260;2023-08-06T03:27:49;23.80;64.00
54006;DHT22;39919;38.160;-122.260;2023-08-06T03:30:18;23.70;64.10
54006;DHT22;39919;38.160;-122.260;2023-08-06T03:32:47;23.60;64.90
54006;DHT22;39919;38.160;-122.260;2023-08-06T03:35:16;23.50;65.20
54006;DHT22;39919;38.160;-122.260;2023-08-06T03:37:45;23.40;65.20
54006;DHT22;39919;38.160;-122.260;2023-08-06T03:40:15;23.30;65.50
54006;DHT22;39919;38.160;-122.260;2023-08-06T03:42:44;23.20;65.60
54006;DHT22;39919;38.160;-122.260;2023-08-06T03:45:15;23.10;65.80
54006;DHT22;39919;38.160;-122.260;2023-08-06T03:47:44;23.00;66.30
54006;DHT22;39919;38.160;-122.260;2023-08-06T03:50:14;22.90;66.50
54006;DHT22;39919;38.160;-122.260;2023-08-06T03:52:43;22.80;66.90
54006;DHT22;39919;38.160;-122.260;2023-08-06T03:55:12;22.80;67.20
54006;DHT22;39919;38.160;-122.260;2023-08-06T03:57:41;22.70;67.10
54006;DHT22;39919;38.160;-122.260;2023-08-06T04:00:11;22.60;67.30
54006;DHT22;39919;38.160;-122.260;2023-08-06T04:02:42;22.50;67.60
54006;DHT22;39919;38.160;-122.260;2023-08-06T04:05:11;22.50;91.70
54006;DHT22;39919;38.160;-122.260;2023-08-06T04:07:40;22.40;96.20
54006;DHT22;39919;38.160;-122.260;2023-08-06T04:10:10;22.30;95.80
54006;DHT22;39919;38.160;-122.260;2023-08-06T04:12:39;22.20;95.10
54006;DHT22;39919;38.160;-122.260;2023-08-06T04:15:09;22.10;69.30
54006;DHT22;39919;38.160;-122.260;2023-08-06T04:17:38;22.00;69.20
54006;DHT22;39919;38.160;-122.260;2023-08-06T04:20:10;21.90;69.70
54006;DHT22;39919;38.160;-122.260;2023-08-06T04:22:39;21.90;69.90
54006;DHT22;39919;38.160;-122.260;2023-08-06T04:25:09;21.80;69.30
54006;DHT22;39919;38.160;-122.260;2023-08-06T04:27:39;21.70;69.60
54006;DHT22;39919;38.160;-122.260;2023-08-06T04:30:10;21.70;70.30
54006;DHT22;39919;38.160;-122.260;2023-08-06T04:32:39;21.60;70.50
54006;DHT22;39919;38.160;-122.260;2023-08-06T04:35:10;21.50;70.30
54006;DHT22;39919;38.160;-122.260;2023-08-06T04:37:40;21.40;70.20
54006;DHT22;39919;38.160;-122.260;2023-08-06T04:40:10;21.40;70.50
54006;DHT22;39919;38.160;-122.260;2023-08-06T04:42:40;21.30;70.90
54006;DHT22;39919;38.160;-122.260;2023-08-06T04:45:09;21.30;71.10
54006;DHT22;39919;38.160;-122.260;2023-08-06T04:47:39;21.20;71.50
54006;DHT22;39919;38.160;-122.260;2023-08-06T04:50:10;21.20;71.70
54006;DHT22;39919;38.160;-122.260;2023-08-06T04:52:41;21.10;71.60
54006;DHT22;39919;38.160;-122.260;2023-08-06T04:55:11;21.10;71.90
54006;DHT22;39919;38.160;-122.260;2023-08-06T04:57:40;21.10;72.40
54006;DHT22;39919;38.160;-122.260;2023-08-06T05:00:12;21.00;72.30
54006;DHT22;39919;38.160;-122.260;2023-08-06T05:02:41;21.00;72.60
54006;DHT22;39919;38.160;-122.260;2023-08-06T05:05:12;20.90;72.60
54006;DHT22;39919;38.160;-122.260;2023-08-06T05:07:41;20.90;72.20
54006;DHT22;39919;38.160;-122.260;2023-08-06T05:10:10;20.80;72.60
54006;DHT22;39919;38.160;-122.260;2023-08-06T05:12:39;20.80;72.70
54006;DHT22;39919;38.160;-122.260;2023-08-06T05:15:09;20.80;73.20
54006;DHT22;39919;38.160;-122.260;2023-08-06T05:17:38;20.80;73.10
54006;DHT22;39919;38.160;-122.260;2023-08-06T05:20:08;20.70;73.00
54006;DHT22;39919;38.160;-122.260;2023-08-06T05:22:39;20.70;73.60
54006;DHT22;39919;38.160;-122.260;2023-08-06T05:25:09;20.70;73.70
54006;DHT22;39919;38.160;-122.260;2023-08-06T05:27:38;20.70;73.80
54006;DHT22;39919;38.160;-122.260;2023-08-06T05:30:08;20.60;74.20
54006;DHT22;39919;38.160;-122.260;2023-08-06T05:32:37;20.60;74.70
54006;DHT22;39919;38.160;-122.260;2023-08-06T05:35:20;20.60;74.10
54006;DHT22;39919;38.160;-122.260;2023-08-06T05:37:51;20.60;74.30
54006;DHT22;39919;38.160;-122.260;2023-08-06T05:40:20;20.50;74.10
54006;DHT22;39919;38.160;-122.260;2023-08-06T05:42:49;20.50;74.40
54006;DHT22;39919;38.160;-122.260;2023-08-06T05:45:23;20.50;73.90
54006;DHT22;39919;38.160;-122.260;2023-08-06T05:48:02;20.50;73.20
54006;DHT22;39919;38.160;-122.260;2023-08-06T05:50:48;20.40;73.10
54006;DHT22;39919;38.160;-122.260;2023-08-06T05:53:22;20.40;73.00
54006;DHT22;39919;38.160;-122.260;2023-08-06T05:55:53;20.40;73.10
54006;DHT22;39919;38.160;-122.260;2023-08-06T05:58:23;20.40;73.60
54006;DHT22;39919;38.160;-122.260;2023-08-06T06:00:55;20.40;73.70
54006;DHT22;39919;38.160;-122.260;2023-08-06T06:03:37;20.30;74.00
54006;DHT22;39919;38.160;-122.260;2023-08-06T06:06:06;20.30;73.50
54006;DHT22;39919;38.160;-122.260;2023-08-06T06:08:39;20.30;73.90
54006;DHT22;39919;38.160;-122.260;2023-08-06T06:11:09;20.30;74.00
54006;DHT22;39919;38.160;-122.260;2023-08-06T06:13:38;20.20;75.20
54006;DHT22;39919;38.160;-122.260;2023-08-06T06:16:12;20.20;74.60
54006;DHT22;39919;38.160;-122.260;2023-08-06T06:18:50;20.20;74.60
54006;DHT22;39919;38.160;-122.260;2023-08-06T06:21:19;20.10;74.70
54006;DHT22;39919;38.160;-122.260;2023-08-06T06:23:55;20.10;74.30
54006;DHT22;39919;38.160;-122.260;2023-08-06T06:26:24;20.00;74.30
54006;DHT22;39919;38.160;-122.260;2023-08-06T06:28:53;20.00;74.80
54006;DHT22;39919;38.160;-122.260;2023-08-06T06:31:22;20.00;75.90
54006;DHT22;39919;38.160;-122.260;2023-08-06T06:33:52;20.00;75.90
54006;DHT22;39919;38.160;-122.260;2023-08-06T06:36:21;20.00;77.50
54006;DHT22;39919;38.160;-122.260;2023-08-06T06:38:54;19.90;78.00
54006;DHT22;39919;38.160;-122.260;2023-08-06T06:41:23;19.90;77.50
54006;DHT22;39919;38.160;-122.260;2023-08-06T06:43:53;19.90;78.40
54006;DHT22;39919;38.160;-122.260;2023-08-06T06:46:22;19.80;78.40
54006;DHT22;39919;38.160;-122.260;2023-08-06T06:48:51;19.80;77.90
54006;DHT22;39919;38.160;-122.260;2023-08-06T06:51:20;19.80;78.20
54006;DHT22;39919;38.160;-122.260;2023-08-06T06:53:50;19.80;78.20
54006;DHT22;39919;38.160;-122.260;2023-08-06T06:56:21;19.70;78.60
54006;DHT22;39919;38.160;-122.260;2023-08-06T06:58:50;19.70;78.30
54006;DHT22;39919;38.160;-122.260;2023-08-06T07:01:19;19.70;78.00
54006;DHT22;39919;38.160;-122.260;2023-08-06T07:03:51;19.70;77.60
54006;DHT22;39919;38.160;-122.260;2023-08-06T07:06:20;19.70;77.80
54006;DHT22;39919;38.160;-122.260;2023-08-06T07:08:49;19.60;77.60
54006;DHT22;39919;38.160;-122.260;2023-08-06T07:11:20;19.60;77.40
54006;DHT22;39919;38.160;-122.260;2023-08-06T07:13:55;19.60;77.00
54006;DHT22;39919;38.160;-122.260;2023-08-06T07:16:25;19.60;78.00
54006;DHT22;39919;38.160;-122.260;2023-08-06T07:18:55;19.50;78.40
54006;DHT22;39919;38.160;-122.260;2023-08-06T07:21:24;19.50;78.80
54006;DHT22;39919;38.160;-122.260;2023-08-06T07:23:53;19.50;78.10
54006;DHT22;39919;38.160;-122.260;2023-08-06T07:26:24;19.50;78.80
54006;DHT22;39919;38.160;-122.260;2023-08-06T07:28:53;19.40;78.50
54006;DHT22;39919;38.160;-122.260;2023-08-06T07:31:22;19.40;79.30
54006;DHT22;39919;38.160;-122.260;2023-08-06T07:33:54;19.40;79.10
54006;DHT22;39919;38.160;-122.260;2023-08-06T07:36:23;19.40;79.60
54006;DHT22;39919;38.160;-122.260;2023-08-06T07:38:52;19.40;79.70
54006;DHT22;39919;38.160;-122.260;2023-08-06T07:41:25;19.40;80.50
54006;DHT22;39919;38.160;-122.260;2023-08-06T07:43:56;19.40;80.20
54006;DHT22;39919;38.160;-122.260;2023-08-06T07:46:25;19.30;80.00
54006;DHT22;39919;38.160;-122.260;2023-08-06T07:48:55;19.30;80.20
54006;DHT22;39919;38.160;-122.260;2023-08-06T07:51:24;19.30;80.20
54006;DHT22;39919;38.160;-122.260;2023-08-06T07:53:53;19.20;79.90
54006;DHT22;39919;38.160;-122.260;2023-08-06T07:56:22;19.20;80.50
54006;DHT22;39919;38.160;-122.260;2023-08-06T07:58:53;19.20;80.70
54006;DHT22;39919;38.160;-122.260;2023-08-06T08:01:22;19.20;80.60
54006;DHT22;39919;38.160;-122.260;2023-08-06T08:03:51;19.20;81.10
54006;DHT22;39919;38.160;-122.260;2023-08-06T08:06:20;19.10;80.90
54006;DHT22;39919;38.160;-122.260;2023-08-06T08:08:50;19.10;80.80
54006;DHT22;39919;38.160;-122.260;2023-08-06T08:11:20;19.10;80.50
54006;DHT22;39919;38.160;-122.260;2023-08-06T08:13:55;19.00;80.50
54006;DHT22;39919;38.160;-122.260;2023-08-06T08:16:24;19.00;80.80
54006;DHT22;39919;38.160;-122.260;2023-08-06T08:18:53;19.00;80.60
54006;DHT22;39919;38.160;-122.260;2023-08-06T08:21:22;19.00;80.90
54006;DHT22;39919;38.160;-122.260;2023-08-06T08:23:56;18.90;81.00
54006;DHT22;39919;38.160;-122.260;2023-08-06T08:26:25;18.90;81.40
54006;DHT22;39919;38.160;-122.260;2023-08-06T08:28:56;18.90;81.00
54006;DHT22;39919;38.160;-122.260;2023-08-06T08:31:25;18.80;81.30
54006;DHT22;39919;38.160;-122.260;2023-08-06T08:33:55;18.90;81.90
54006;DHT22;39919;38.160;-122.260;2023-08-06T08:36:25;18.80;81.50
54006;DHT22;39919;38.160;-122.260;2023-08-06T08:38:54;18.80;81.60
54006;DHT22;39919;38.160;-122.260;2023-08-06T08:41:24;18.70;80.80
54006;DHT22;39919;38.160;-122.260;2023-08-06T08:43:55;18.70;80.70
54006;DHT22;39919;38.160;-122.260;2023-08-06T08:46:25;18.70;80.20
54006;DHT22;39919;38.160;-122.260;2023-08-06T08:48:55;18.70;80.10
54006;DHT22;39919;38.160;-122.260;2023-08-06T08:51:25;18.60;79.70
54006;DHT22;39919;38.160;-122.260;2023-08-06T08:53:54;18.70;80.60
54006;DHT22;39919;38.160;-122.260;2023-08-06T08:56:24;18.70;81.20
54006;DHT22;39919;38.160;-122.260;2023-08-06T08:58:55;18.60;81.40
54006;DHT22;39919;38.160;-122.260;2023-08-06T09:01:25;18.60;80.90
54006;DHT22;39919;38.160;-122.260;2023-08-06T09:03:57;18.60;81.70
54006;DHT22;39919;38.160;-122.260;2023-08-06T09:06:28;18.50;82.00
54006;DHT22;39919;38.160;-122.260;2023-08-06T09:09:06;18.50;81.60
54006;DHT22;39919;38.160;-122.260;2023-08-06T09:11:37;18.50;81.60
54006;DHT22;39919;38.160;-122.260;2023-08-06T09:14:10;18.50;82.90
54006;DHT22;39919;38.160;-122.260;2023-08-06T09:16:39;18.50;83.00
54006;DHT22;39919;38.160;-122.260;2023-08-06T09:19:09;18.50;82.70
54006;DHT22;39919;38.160;-122.260;2023-08-06T09:21:39;18.40;82.60
54006;DHT22;39919;38.160;-122.260;2023-08-06T09:24:09;18.40;82.30
54006;DHT22;39919;38.160;-122.260;2023-08-06T09:26:39;18.40;81.90
54006;DHT22;39919;38.160;-122.260;2023-08-06T09:29:10;18.40;81.60
54006;DHT22;39919;38.160;-122.260;2023-08-06T09:31:47;18.40;81.90
54006;DHT22;39919;38.160;-122.260;2023-08-06T09:34:19;18.40;83.00
54006;DHT22;39919;38.160;-122.260;2023-08-06T09:36:49;18.40;83.10
54006;DHT22;39919;38.160;-122.260;2023-08-06T09:39:19;18.40;83.30
54006;DHT22;39919;38.160;-122.260;2023-08-06T09:41:48;18.30;82.50
54006;DHT22;39919;38.160;-122.260;2023-08-06T09:47:11;18.30;83.00
54006;DHT22;39919;38.160;-122.260;2023-08-06T09:49:43;18.30;83.10
54006;DHT22;39919;38.160;-122.260;2023-08-06T09:52:13;18.30;82.50
54006;DHT22;39919;38.160;-122.260;2023-08-06T09:54:45;18.30;82.30
54006;DHT22;39919;38.160;-122.260;2023-08-06T09:57:18;18.30;82.50
54006;DHT22;39919;38.160;-122.260;2023-08-06T09:59:49;18.20;82.60
54006;DHT22;39919;38.160;-122.260;2023-08-06T10:02:21;18.20;83.10
54006;DHT22;39919;38.160;-122.260;2023-08-06T10:04:53;18.20;82.80
54006;DHT22;39919;38.160;-122.260;2023-08-06T10:07:24;18.20;82.30
54006;DHT22;39919;38.160;-122.260;2023-08-06T10:09:54;18.20;83.50
54006;DHT22;39919;38.160;-122.260;2023-08-06T10:12:23;18.20;83.40
54006;DHT22;39919;38.160;-122.260;2023-08-06T10:14:57;18.20;83.80
54006;DHT22;39919;38.160;-122.260;2023-08-06T10:17:29;18.10;83.50
54006;DHT22;39919;38.160;-122.260;2023-08-06T10:20:00;18.10;84.10
54006;DHT22;39919;38.160;-122.260;2023-08-06T10:22:33;18.10;84.90
54006;DHT22;39919;38.160;-122.260;2023-08-06T10:25:02;18.10;84.40
54006;DHT22;39919;38.160;-122.260;2023-08-06T10:27:34;18.10;83.90
54006;DHT22;39919;38.160;-122.260;2023-08-06T10:30:28;18.10;84.80
54006;DHT22;39919;38.160;-122.260;2023-08-06T10:33:02;18.00;83.80
54006;DHT22;39919;38.160;-122.260;2023-08-06T10:35:35;18.00;83.40
54006;DHT22;39919;38.160;-122.260;2023-08-06T10:38:05;18.00;83.00
54006;DHT22;39919;38.160;-122.260;2023-08-06T10:40:36;18.00;82.90
54006;DHT22;39919;38.160;-122.260;2023-08-06T10:43:06;18.00;83.00
54006;DHT22;39919;38.160;-122.260;2023-08-06T10:45:38;18.00;83.10
54006;DHT22;39919;38.160;-122.260;2023-08-06T10:48:29;17.90;82.90
54006;DHT22;39919;38.160;-122.260;2023-08-06T10:51:00;17.90;83.10
54006;DHT22;39919;38.160;-122.260;2023-08-06T10:53:30;17.90;83.10
54006;DHT22;39919;38.160;-122.260;2023-08-06T10:55:59;17.90;83.60
54006;DHT22;39919;38.160;-122.260;2023-08-06T10:58:32;17.90;83.50
54006;DHT22;39919;38.160;-122.260;2023-08-06T11:01:03;17.90;84.30
54006;DHT22;39919;38.160;-122.260;2023-08-06T11:03:33;17.90;84.40
54006;DHT22;39919;38.160;-122.260;2023-08-06T11:06:03;17.90;84.90
54006;DHT22;39919;38.160;-122.260;2023-08-06T11:08:35;17.80;85.60
54006;DHT22;39919;38.160;-122.260;2023-08-06T11:11:11;17.80;86.20
54006;DHT22;39919;38.160;-122.260;2023-08-06T11:13:40;17.80;86.10
54006;DHT22;39919;38.160;-122.260;2023-08-06T11:16:11;17.80;85.60
54006;DHT22;39919;38.160;-122.260;2023-08-06T11:18:40;17.80;85.30
54006;DHT22;39919;38.160;-122.260;2023-08-06T11:21:10;17.80;85.30
54006;DHT22;39919;38.160;-122.260;2023-08-06T11:23:40;17.80;85.70
54006;DHT22;39919;38.160;-122.260;2023-08-06T11:26:10;17.80;86.00
54006;DHT22;39919;38.160;-122.260;2023-08-06T11:28:39;17.70;86.30
54006;DHT22;39919;38.160;-122.260;2023-08-06T11:31:19;17.70;85.90
54006;DHT22;39919;38.160;-122.260;2023-08-06T11:33:49;17.70;86.00
54006;DHT22;39919;38.160;-122.260;2023-08-06T11:36:29;17.70;85.70
54006;DHT22;39919;38.160;-122.260;2023-08-06T11:38:59;17.70;86.30
54006;DHT22;39919;38.160;-122.260;2023-08-06T11:41:29;17.60;87.00
54006;DHT22;39919;38.160;-122.260;2023-08-06T11:43:59;17.70;87.10
54006;DHT22;39919;38.160;-122.260;2023-08-06T11:46:30;17.60;87.30
54006;DHT22;39919;38.160;-122.260;2023-08-06T11:49:18;17.60;86.50
54006;DHT22;39919;38.160;-122.260;2023-08-06T11:51:51;17.60;85.90
54006;DHT22;39919;38.160;-122.260;2023-08-06T11:54:31;17.60;85.60
54006;DHT22;39919;38.160;-122.260;2023-08-06T11:57:01;17.60;85.30
54006;DHT22;39919;38.160;-122.260;2023-08-06T11:59:31;17.50;85.80
54006;DHT22;39919;38.160;-122.260;2023-08-06T12:02:05;17.50;86.40
54006;DHT22;39919;38.160;-122.260;2023-08-06T12:05:00;17.50;86.30
54006;DHT22;39919;38.160;-122.260;2023-08-06T12:07:30;17.50;85.70
54006;DHT22;39919;38.160;-122.260;2023-08-06T12:10:00;17.50;85.40
54006;DHT22;39919;38.160;-122.260;2023-08-06T12:12:29;17.50;84.80
54006;DHT22;39919;38.160;-122.260;2023-08-06T12:14:58;17.40;85.50
54006;DHT22;39919;38.160;-122.260;2023-08-06T12:17:29;17.40;86.00
54006;DHT22;39919;38.160;-122.260;2023-08-06T12:19:58;17.40;86.10
54006;DHT22;39919;38.160;-122.260;2023-08-06T12:22:27;17.40;86.30
54006;DHT22;39919;38.160;-122.260;2023-08-06T12:24:59;17.40;86.70
54006;DHT22;39919;38.160;-122.260;2023-08-06T12:27:28;17.40;86.90
54006;DHT22;39919;38.160;-122.260;2023-08-06T12:29:59;17.30;86.80
54006;DHT22;39919;38.160;-122.260;2023-08-06T12:32:30;17.30;87.40
54006;DHT22;39919;38.160;-122.260;2023-08-06T12:34:59;17.40;87.90
54006;DHT22;39919;38.160;-122.260;2023-08-06T12:37:29;17.40;87.70
54006;DHT22;39919;38.160;-122.260;2023-08-06T12:39:58;17.30;87.10
54006;DHT22;39919;38.160;-122.260;2023-08-06T12:42:27;17.30;87.30
54006;DHT22;39919;38.160;-122.260;2023-08-06T12:44:56;17.30;86.90
54006;DHT22;39919;38.160;-122.260;2023-08-06T12:47:25;17.30;87.00
54006;DHT22;39919;38.160;-122.260;2023-08-06T12:49:56;17.30;86.90
54006;DHT22;39919;38.160;-122.260;2023-08-06T12:52:25;17.30;86.70
54006;DHT22;39919;38.160;-122.260;2023-08-06T12:54:54;17.20;87.30
54006;DHT22;39919;38.160;-122.260;2023-08-06T12:57:24;17.30;88.20
54006;DHT22;39919;38.160;-122.260;2023-08-06T12:59:53;17.20;86.80
54006;DHT22;39919;38.160;-122.260;2023-08-06T13:02:22;17.20;86.80
54006;DHT22;39919;38.160;-122.260;2023-08-06T13:04:58;17.20;87.00
54006;DHT22;39919;38.160;-122.260;2023-08-06T13:07:32;17.20;87.50
54006;DHT22;39919;38.160;-122.260;2023-08-06T13:10:01;17.20;87.10
54006;DHT22;39919;38.160;-122.260;2023-08-06T13:12:30;17.10;88.00
54006;DHT22;39919;38.160;-122.260;2023-08-06T13:14:59;17.10;88.20
54006;DHT22;39919;38.160;-122.260;2023-08-06T13:17:29;17.10;88.40
54006;DHT22;39919;38.160;-122.260;2023-08-06T13:20:00;17.10;89.10
54006;DHT22;39919;38.160;-122.260;2023-08-06T13:22:29;17.10;89.40
54006;DHT22;39919;38.160;-122.260;2023-08-06T13:24:58;17.10;88.00
54006;DHT22;39919;38.160;-122.260;2023-08-06T13:27:27;17.10;87.40
54006;DHT22;39919;38.160;-122.260;2023-08-06T13:29:58;17.10;87.40
54006;DHT22;39919;38.160;-122.260;2023-08-06T13:32:27;17.10;87.90
54006;DHT22;39919;38.160;-122.260;2023-08-06T13:34:56;17.00;88.70
54006;DHT22;39919;38.160;-122.260;2023-08-06T13:37:27;17.10;89.10
54006;DHT22;39919;38.160;-122.260;2023-08-06T13:39:56;17.10;89.10
54006;DHT22;39919;38.160;-122.260;2023-08-06T13:42:25;17.10;89.30
54006;DHT22;39919;38.160;-122.260;2023-08-06T13:44:54;17.10;90.00
54006;DHT22;39919;38.160;-122.260;2023-08-06T13:47:29;17.10;90.00
54006;DHT22;39919;38.160;-122.260;2023-08-06T13:49:58;17.10;89.30
54006;DHT22;39919;38.160;-122.260;2023-08-06T13:52:29;17.10;89.50
54006;DHT22;39919;38.160;-122.260;2023-08-06T13:54:58;17.10;89.40
54006;DHT22;39919;38.160;-122.260;2023-08-06T13:57:27;17.20;90.00
54006;DHT22;39919;38.160;-122.260;2023-08-06T13:59:56;17.20;89.50
54006;DHT22;39919;38.160;-122.260;2023-08-06T14:02:25;17.20;88.80
54006;DHT22;39919;38.160;-122.260;2023-08-06T14:04:54;17.30;88.60
54006;DHT22;39919;38.160;-122.260;2023-08-06T14:07:25;17.30;88.10
54006;DHT22;39919;38.160;-122.260;2023-08-06T14:09:59;17.30;87.60
54006;DHT22;39919;38.160;-122.260;2023-08-06T14:12:28;17.40;87.30
54006;DHT22;39919;38.160;-122.260;2023-08-06T14:14:57;17.40;87.00
54006;DHT22;39919;38.160;-122.260;2023-08-06T14:17:26;17.50;86.60
54006;DHT22;39919;38.160;-122.260;2023-08-06T14:20:10;17.60;86.30
54006;DHT22;39919;38.160;-122.260;2023-08-06T14:22:40;17.70;86.00
54006;DHT22;39919;38.160;-122.260;2023-08-06T14:25:11;17.70;86.20
54006;DHT22;39919;38.160;-122.260;2023-08-06T14:27:41;17.80;85.90
54006;DHT22;39919;38.160;-122.260;2023-08-06T14:30:13;17.90;86.50
54006;DHT22;39919;38.160;-122.260;2023-08-06T14:32:42;18.00;86.20
54006;DHT22;39919;38.160;-122.260;2023-08-06T14:35:12;18.10;86.00
54006;DHT22;39919;38.160;-122.260;2023-08-06T14:37:41;18.10;86.60
54006;DHT22;39919;38.160;-122.260;2023-08-06T14:40:19;18.20;86.90
54006;DHT22;39919;38.160;-122.260;2023-08-06T14:42:56;18.30;86.50
54006;DHT22;39919;38.160;-122.260;2023-08-06T14:45:25;18.50;87.10
54006;DHT22;39919;38.160;-122.260;2023-08-06T14:48:03;18.60;88.10
54006;DHT22;39919;38.160;-122.260;2023-08-06T14:50:36;18.70;88.00
54006;DHT22;39919;38.160;-122.260;2023-08-06T14:53:16;18.80;88.10
54006;DHT22;39919;38.160;-122.260;2023-08-06T14:55:50;18.90;88.00
54006;DHT22;39919;38.160;-122.260;2023-08-06T14:58:25;19.00;87.10
54006;DHT22;39919;38.160;-122.260;2023-08-06T15:00:56;19.10;86.50
54006;DHT22;39919;38.160;-122.260;2023-08-06T15:03:30;19.30;86.30
54006;DHT22;39919;38.160;-122.260;2023-08-06T15:06:00;19.50;86.40
54006;DHT22;39919;38.160;-122.260;2023-08-06T15:08:29;19.60;87.60
54006;DHT22;39919;38.160;-122.260;2023-08-06T15:11:00;20.00;89.00
54006;DHT22;39919;38.160;-122.260;2023-08-06T15:13:31;20.80;96.80
54006;DHT22;39919;38.160;-122.260;2023-08-06T15:16:03;21.70;94.50
54006;DHT22;39919;38.160;-122.260;2023-08-06T15:18:32;23.00;99.90
54006;DHT22;39919;38.160;-122.260;2023-08-06T15:21:03;24.40;99.90
54006;DHT22;39919;38.160;-122.260;2023-08-06T15:23:32;25.60;78.60
54006;DHT22;39919;38.160;-122.260;2023-08-06T15:26:03;26.70;74.50
54006;DHT22;39919;38.160;-122.260;2023-08-06T15:28:32;27.90;70.90